Time;durP1;ratioP1;P1;durP2;ratioP2;P2;SDS_P1;SDS_P2;PMS_P1;PMS_P2;Temp;Humidity;BMP_temperature;BMP_pressure;BME280_temperature;BME280_humidity;BME280_pressure;Samples;Min_cycle;Max_cycle;Signal;HPM_P1;HPM_P2
2022/11/12 00:00:12;;;;;;;1.30;1.30;;;8.50;99.90;;;;;;5007450;28;20201;-65
2022/11/12 00:02:39;;;;;;;1.10;1.10;;;8.60;99.90;;;;;;5004701;28;20201;-63
2022/11/12 00:05:08;;;;;;;1.20;1.20;;;8.60;99.90;;;;;;5008841;28;20766;-64
2022/11/12 00:07:34;;;;;;;1.20;1.20;;;8.60;99.90;;;;;;5003615;28;20907;-63
2022/11/12 00:10:01;;;;;;;1.23;1.20;;;8.70;99.90;;;;;;5006088;28;20589;-63
2022/11/12 00:12:28;;;;;;;1.20;1.20;;;8.70;99.90;;;;;;5009177;28;20210;-63
2022/11/12 00:14:55;;;;;;;2.23;1.47;;;8.70;99.90;;;;;;5001545;28;20731;-64
2022/11/12 00:17:22;;;;;;;1.57;1.47;;;8.70;99.90;;;;;;5001883;28;20272;-64
2022/11/12 00:19:49;;;;;;;1.83;1.73;;;8.70;99.90;;;;;;5003177;28;20193;-63
2022/11/12 00:22:17;;;;;;;4.30;2.20;;;8.60;99.90;;;;;;5008111;28;20215;-63
2022/11/12 00:24:44;;;;;;;9.57;2.63;;;8.60;99.90;;;;;;5007942;28;20589;-63
2022/11/12 00:27:11;;;;;;;3.93;2.33;;;8.40;99.90;;;;;;5004975;28;20209;-63
2022/11/12 00:29:38;;;;;;;3.83;2.07;;;8.30;99.90;;;;;;5006511;28;20225;-64
2022/11/12 00:32:05;;;;;;;2.70;2.43;;;8.30;99.90;;;;;;4999325;28;20210;-64
2022/11/12 00:34:32;;;;;;;2.43;1.80;;;8.30;99.90;;;;;;4999356;28;20225;-64
2022/11/12 00:36:59;;;;;;;2.43;1.80;;;8.30;99.90;;;;;;5007096;28;20320;-63
2022/11/12 00:39:28;;;;;;;1.97;1.77;;;8.40;99.90;;;;;;5003241;28;20286;-64
2022/11/12 00:41:55;;;;;;;10.30;3.17;;;8.40;99.90;;;;;;5004479;28;20299;-64
2022/11/12 00:44:22;;;;;;;4.97;2.20;;;8.40;99.90;;;;;;5003450;28;20217;-64
2022/11/12 00:46:49;;;;;;;2.60;2.00;;;8.40;99.90;;;;;;5001666;28;20201;-64
2022/11/12 00:49:15;;;;;;;1.60;1.50;;;8.50;99.90;;;;;;4995168;28;20237;-62
2022/11/12 00:51:43;;;;;;;1.47;1.33;;;8.50;99.90;;;;;;5004068;28;20300;-63
2022/11/12 00:54:10;;;;;;;1.57;1.47;;;8.60;99.90;;;;;;5001397;28;20201;-64
2022/11/12 00:56:38;;;;;;;1.60;1.50;;;8.70;99.90;;;;;;5008461;28;20295;-63
2022/11/12 00:59:05;;;;;;;1.80;1.70;;;8.70;99.90;;;;;;4998055;28;20229;-64
2022/11/12 01:01:32;;;;;;;1.50;1.40;;;8.80;99.90;;;;;;5001260;28;20716;-65
2022/11/12 01:04:00;;;;;;;1.07;1.07;;;8.80;99.90;;;;;;5001805;28;20209;-62
2022/11/12 01:06:27;;;;;;;0.80;0.80;;;8.70;99.90;;;;;;5002703;28;20206;-63
2022/11/12 01:08:55;;;;;;;0.80;0.80;;;8.60;99.90;;;;;;5001102;28;20218;-63
2022/11/12 01:11:24;;;;;;;0.90;0.90;;;8.50;99.90;;;;;;5000612;28;20718;-63
2022/11/12 01:13:56;;;;;;;0.80;0.80;;;8.50;99.90;;;;;;5001651;28;20208;-63
2022/11/12 01:16:25;;;;;;;0.80;0.80;;;8.40;99.90;;;;;;5007360;28;20566;-63
2022/11/12 01:18:54;;;;;;;0.80;0.80;;;8.30;99.90;;;;;;5002168;28;20218;-63
2022/11/12 01:21:22;;;;;;;0.70;0.70;;;8.20;99.90;;;;;;5004960;28;20196;-64
2022/11/12 01:23:49;;;;;;;0.73;0.73;;;8.20;99.90;;;;;;5003072;28;20208;-64
2022/11/12 01:26:18;;;;;;;0.97;0.97;;;8.20;99.90;;;;;;5007184;28;20206;-62
2022/11/12 01:28:45;;;;;;;2.20;1.00;;;8.20;99.90;;;;;;5008584;28;20229;-63
2022/11/12 01:31:17;;;;;;;1.13;1.03;;;8.30;99.90;;;;;;4999032;28;20226;-64
2022/11/12 01:33:45;;;;;;;1.00;1.00;;;8.20;99.90;;;;;;5001977;28;20201;-64
2022/11/12 01:36:13;;;;;;;1.30;1.20;;;8.20;99.90;;;;;;5003619;28;20215;-63
2022/11/12 01:38:42;;;;;;;3.03;1.50;;;8.30;99.90;;;;;;5011374;28;20738;-64
2022/11/12 01:41:11;;;;;;;1.20;1.20;;;8.30;99.90;;;;;;5011870;28;20194;-64
2022/11/12 01:43:38;;;;;;;1.03;1.03;;;8.30;99.90;;;;;;5011171;28;20205;-64
2022/11/12 01:46:13;;;;;;;4.77;1.70;;;8.30;99.90;;;;;;5004034;28;20201;-64
2022/11/12 01:48:48;;;;;;;0.93;0.90;;;8.20;99.90;;;;;;5012237;28;20228;-63
2022/11/12 01:51:16;;;;;;;4.67;1.50;;;8.20;99.90;;;;;;5007110;28;20310;-63
2022/11/12 01:53:47;;;;;;;3.07;1.63;;;8.30;99.90;;;;;;5014845;28;20210;-63
2022/11/12 01:56:15;;;;;;;1.47;1.37;;;8.30;99.90;;;;;;5014302;28;20197;-64
2022/11/12 01:58:44;;;;;;;3.23;1.57;;;8.30;99.90;;;;;;5016265;28;20240;-64
2022/11/12 02:01:10;;;;;;;2.40;1.53;;;8.40;99.90;;;;;;5019980;28;20288;-62
2022/11/12 02:03:37;;;;;;;2.83;1.70;;;8.40;99.90;;;;;;5014342;28;20205;-63
2022/11/12 02:06:10;;;;;;;2.10;1.50;;;8.40;99.90;;;;;;5014873;28;20220;-62
2022/11/12 02:08:38;;;;;;;1.00;1.00;;;8.40;99.90;;;;;;5014701;28;20257;-62
2022/11/12 02:11:27;;;;;;;1.37;1.27;;;8.40;99.90;;;;;;5010274;28;20316;-62
2022/11/12 02:13:57;;;;;;;1.30;1.30;;;8.40;99.90;;;;;;5014414;28;20201;-64
2022/11/12 02:16:25;;;;;;;1.40;1.40;;;8.50;99.90;;;;;;5015256;28;20251;-63
2022/11/12 02:18:52;;;;;;;1.97;1.60;;;8.60;99.90;;;;;;5015175;28;20229;-63
2022/11/12 02:21:21;;;;;;;1.50;1.40;;;8.40;99.90;;;;;;5015533;28;20694;-63
2022/11/12 02:23:56;;;;;;;1.70;1.60;;;8.30;99.90;;;;;;5017552;28;20205;-63
2022/11/12 02:26:23;;;;;;;1.50;1.40;;;8.20;99.90;;;;;;5015721;28;20203;-63
2022/11/12 02:28:50;;;;;;;1.57;1.47;;;8.40;99.90;;;;;;5015586;28;20225;-63
2022/11/12 02:31:17;;;;;;;1.40;1.30;;;8.30;99.90;;;;;;5014964;28;20726;-63
2022/11/12 02:33:44;;;;;;;1.30;1.20;;;8.30;99.90;;;;;;5014457;28;20201;-63
2022/11/12 02:36:11;;;;;;;0.70;0.70;;;8.30;99.90;;;;;;5011176;28;20244;-62
2022/11/12 02:38:39;;;;;;;0.90;0.90;;;8.30;99.90;;;;;;5015142;28;20332;-63
2022/11/12 02:41:06;;;;;;;0.70;0.70;;;8.30;99.90;;;;;;5006695;28;20648;-64
2022/11/12 02:43:33;;;;;;;0.80;0.80;;;8.30;99.90;;;;;;5014305;28;20213;-63
2022/11/12 02:45:59;;;;;;;0.90;0.90;;;8.30;99.90;;;;;;5021062;28;20203;-63
2022/11/12 02:48:26;;;;;;;0.80;0.80;;;8.30;99.90;;;;;;5015847;28;20311;-64
2022/11/12 02:50:53;;;;;;;3.57;1.10;;;8.30;99.90;;;;;;5014742;28;20225;-62
2022/11/12 02:53:20;;;;;;;0.90;0.90;;;8.30;99.90;;;;;;5014599;28;20292;-64
2022/11/12 02:55:48;;;;;;;0.90;0.90;;;8.30;99.90;;;;;;5013787;28;20209;-63
2022/11/12 02:58:15;;;;;;;1.03;1.00;;;8.20;99.90;;;;;;5016665;28;20225;-65
2022/11/12 03:00:42;;;;;;;0.97;0.97;;;8.10;99.90;;;;;;5016947;28;20664;-64
2022/11/12 03:03:08;;;;;;;0.90;0.90;;;8.10;99.90;;;;;;5008854;28;20201;-64
2022/11/12 03:05:36;;;;;;;1.00;1.00;;;8.10;99.90;;;;;;5015457;28;20209;-65
2022/11/12 03:08:05;;;;;;;0.87;0.87;;;8.10;99.90;;;;;;5016530;28;20221;-64
2022/11/12 03:10:33;;;;;;;3.13;1.73;;;8.00;99.90;;;;;;5017422;28;20229;-67
2022/11/12 03:13:02;;;;;;;1.10;1.10;;;8.00;99.90;;;;;;5016787;28;20205;-63
2022/11/12 03:15:30;;;;;;;1.30;1.20;;;7.90;99.90;;;;;;5021339;28;20240;-64
2022/11/12 03:17:57;;;;;;;1.33;1.30;;;7.90;99.90;;;;;;5016914;28;20298;-63
2022/11/12 03:20:24;;;;;;;0.93;0.93;;;7.80;99.90;;;;;;5016788;28;20575;-65
2022/11/12 03:22:56;;;;;;;2.20;1.50;;;7.80;99.90;;;;;;5016422;28;20324;-65
2022/11/12 03:25:23;;;;;;;2.13;1.70;;;7.80;99.90;;;;;;5015593;28;20229;-66
2022/11/12 03:27:57;;;;;;;3.47;1.60;;;7.80;99.90;;;;;;5016653;28;20229;-63
2022/11/12 03:30:26;;;;;;;1.80;1.40;;;7.70;99.90;;;;;;5010690;28;20213;-65
2022/11/12 03:32:53;;;;;;;1.50;1.40;;;7.70;99.90;;;;;;5015394;28;20284;-65
2022/11/12 03:35:20;;;;;;;1.53;1.43;;;7.70;99.90;;;;;;5015279;28;20284;-64
2022/11/12 03:37:47;;;;;;;1.03;0.93;;;7.60;99.90;;;;;;5016825;28;20308;-66
2022/11/12 03:40:16;;;;;;;2.50;1.33;;;7.70;99.90;;;;;;5016368;28;20280;-63
2022/11/12 03:42:47;;;;;;;1.20;1.10;;;7.60;99.90;;;;;;5016208;28;20211;-64
2022/11/12 03:45:14;;;;;;;3.37;1.20;;;7.60;99.90;;;;;;5008619;28;20212;-63
2022/11/12 03:47:44;;;;;;;2.67;1.37;;;7.60;99.90;;;;;;5019846;28;20712;-63
2022/11/12 03:50:11;;;;;;;2.47;1.13;;;7.60;99.90;;;;;;5016513;28;20783;-64
2022/11/12 03:52:38;;;;;;;0.90;0.90;;;7.50;99.90;;;;;;5016496;28;20551;-65
2022/11/12 03:55:06;;;;;;;1.57;1.20;;;7.40;99.90;;;;;;5012944;28;20201;-64
2022/11/12 03:57:33;;;;;;;1.40;1.30;;;7.40;99.90;;;;;;5017331;28;20275;-62
2022/11/12 04:00:00;;;;;;;1.40;1.30;;;7.50;99.90;;;;;;5016207;28;20215;-64
2022/11/12 04:02:28;;;;;;;1.63;1.40;;;7.50;99.90;;;;;;5014751;28;20242;-66
2022/11/12 04:10:28;;;;;;;1.10;1.00;;;7.60;99.90;;;;;;5013957;28;20236;-65
2022/11/12 04:15:39;;;;;;;1.80;1.70;;;7.70;99.90;;;;;;5015566;28;20231;-64
2022/11/12 04:23:36;;;;;;;1.03;1.03;;;7.70;99.90;;;;;;5013138;28;20211;-66
2022/11/12 04:31:28;;;;;;;0.70;0.70;;;7.60;99.90;;;;;;5007987;28;20233;-65
2022/11/12 04:34:27;;;;;;;0.60;0.60;;;7.60;99.90;;;;;;5012236;28;20205;-65
2022/11/12 04:36:43;;;;;;;0.80;0.80;;;7.60;99.90;;;;;;5013128;28;20205;-65
2022/11/12 04:39:10;;;;;;;0.87;0.87;;;7.70;99.90;;;;;;5012723;28;20320;-67
2022/11/12 04:47:04;;;;;;;0.53;0.53;;;7.60;99.90;;;;;;5005173;28;20200;-65
2022/11/12 04:49:31;;;;;;;0.60;0.60;;;7.60;99.90;;;;;;5013864;28;20209;-66
2022/11/12 04:52:05;;;;;;;1.60;0.50;;;7.60;99.90;;;;;;5013653;28;20709;-66
2022/11/12 04:54:33;;;;;;;0.67;0.67;;;7.60;99.90;;;;;;5012032;28;20288;-66
2022/11/12 04:57:00;;;;;;;0.90;0.90;;;7.60;99.90;;;;;;5012438;28;20201;-65
2022/11/12 04:59:27;;;;;;;0.97;0.97;;;7.60;99.90;;;;;;5013124;28;20217;-65
2022/11/12 05:01:54;;;;;;;0.70;0.70;;;7.60;99.90;;;;;;5012412;28;20288;-66
2022/11/12 05:04:21;;;;;;;0.67;0.67;;;7.50;99.90;;;;;;5011297;28;20808;-65
2022/11/12 05:06:51;;;;;;;0.60;0.60;;;7.50;99.90;;;;;;5012457;28;20205;-66
2022/11/12 05:09:20;;;;;;;0.83;0.50;;;7.40;99.90;;;;;;5012651;28;20225;-66
2022/11/12 05:11:46;;;;;;;0.50;0.50;;;7.40;99.90;;;;;;5012572;28;20230;-67
2022/11/12 05:14:13;;;;;;;0.90;0.90;;;7.40;99.90;;;;;;5011837;28;20547;-63
2022/11/12 05:16:40;;;;;;;1.50;1.10;;;7.20;99.90;;;;;;5012173;28;20206;-65
2022/11/12 05:19:07;;;;;;;0.93;0.93;;;7.10;99.90;;;;;;5012763;28;20227;-64
2022/11/12 05:24:20;;;;;;;3.77;2.00;;;7.00;99.90;;;;;;5005930;28;20233;-65
2022/11/12 05:26:46;;;;;;;1.27;1.20;;;6.90;99.90;;;;;;5016730;28;20205;-66
2022/11/12 05:29:13;;;;;;;1.73;1.30;;;6.90;99.90;;;;;;5012860;28;20228;-65
2022/11/12 05:31:40;;;;;;;2.07;1.23;;;6.90;99.90;;;;;;5012210;28;20255;-64
2022/11/12 05:34:07;;;;;;;1.20;1.10;;;7.00;99.90;;;;;;5011433;28;20655;-66
2022/11/12 05:36:34;;;;;;;1.33;1.10;;;7.00;99.90;;;;;;5012265;28;20581;-65
2022/11/12 05:39:00;;;;;;;1.13;1.10;;;7.00;99.90;;;;;;5011422;28;20566;-64
2022/11/12 05:41:29;;;;;;;2.67;1.50;;;7.10;99.90;;;;;;5012499;28;20631;-66
2022/11/12 05:43:55;;;;;;;1.77;1.63;;;7.20;99.90;;;;;;5011166;28;20205;-66
2022/11/12 05:46:22;;;;;;;1.47;0.90;;;7.20;99.90;;;;;;5012104;28;20581;-65
2022/11/12 05:48:49;;;;;;;1.50;1.40;;;7.20;99.90;;;;;;5012594;28;20235;-65
2022/11/12 05:51:16;;;;;;;1.23;1.23;;;7.30;99.90;;;;;;5012282;28;20232;-65
2022/11/12 05:53:43;;;;;;;2.40;1.40;;;7.40;99.90;;;;;;5012962;28;20205;-65
2022/11/12 05:56:11;;;;;;;3.70;1.63;;;7.40;99.90;;;;;;5012796;28;20205;-65
2022/11/12 05:58:39;;;;;;;6.43;1.97;;;7.40;99.90;;;;;;5012938;28;20224;-67
2022/11/12 06:01:06;;;;;;;3.43;1.37;;;7.30;99.90;;;;;;5013653;28;20267;-66
2022/11/12 06:03:33;;;;;;;4.80;1.47;;;7.20;99.90;;;;;;5013326;28;20597;-66
2022/11/12 06:06:00;;;;;;;7.93;2.73;;;7.20;99.90;;;;;;5017012;28;20296;-63
2022/11/12 06:08:27;;;;;;;0.90;0.90;;;7.20;99.90;;;;;;5018544;28;20341;-65
2022/11/12 06:10:55;;;;;;;1.43;1.43;;;7.20;99.90;;;;;;5014609;28;20267;-66
2022/11/12 06:13:24;;;;;;;1.27;1.23;;;7.30;99.90;;;;;;5023430;28;20289;-66
2022/11/12 06:15:52;;;;;;;3.47;1.53;;;7.40;99.90;;;;;;5011528;28;20613;-65
2022/11/12 06:18:19;;;;;;;3.43;1.77;;;7.50;99.90;;;;;;5011773;28;20228;-65
2022/11/12 06:21:18;;;;;;;1.60;1.10;;;7.40;99.90;;;;;;5012108;28;20236;-65
2022/11/12 06:23:33;;;;;;;1.30;1.20;;;7.40;99.90;;;;;;5012990;28;20209;-65
2022/11/12 06:26:00;;;;;;;1.43;1.33;;;7.40;99.90;;;;;;5011200;28;20209;-67
2022/11/12 06:28:27;;;;;;;1.97;1.30;;;7.50;99.90;;;;;;5004252;28;20574;-65
2022/11/12 06:30:56;;;;;;;0.93;0.93;;;7.60;99.90;;;;;;5011553;28;20227;-65
2022/11/12 06:33:23;;;;;;;1.20;1.20;;;7.60;99.90;;;;;;5011972;28;20578;-65
2022/11/12 06:35:56;;;;;;;1.37;1.30;;;7.50;99.90;;;;;;5011439;28;20197;-66
2022/11/12 06:38:24;;;;;;;1.40;1.30;;;7.40;99.90;;;;;;5013536;28;20240;-64
2022/11/12 06:40:50;;;;;;;4.10;1.70;;;7.40;99.90;;;;;;5014899;28;20288;-65
2022/11/12 06:43:17;;;;;;;2.30;1.40;;;7.30;99.90;;;;;;5014938;28;20208;-65
2022/11/12 06:45:44;;;;;;;1.67;1.57;;;7.30;99.90;;;;;;5014992;28;20292;-66
2022/11/12 06:48:12;;;;;;;1.40;1.30;;;7.30;99.90;;;;;;5015365;28;20230;-65
2022/11/12 06:50:39;;;;;;;1.33;1.23;;;7.20;99.90;;;;;;5014968;28;20657;-66
2022/11/12 06:53:06;;;;;;;1.80;1.47;;;7.20;99.90;;;;;;5017942;28;20288;-65
2022/11/12 06:55:33;;;;;;;1.93;1.47;;;7.10;99.90;;;;;;5017667;28;20205;-66
2022/11/12 06:58:00;;;;;;;1.30;1.30;;;7.20;99.90;;;;;;5015149;28;20221;-66
2022/11/12 07:00:27;;;;;;;1.33;1.30;;;7.20;99.90;;;;;;5015436;28;20618;-66
2022/11/12 07:02:53;;;;;;;1.50;1.40;;;7.20;99.90;;;;;;5014864;28;20214;-66
2022/11/12 07:05:21;;;;;;;1.53;1.43;;;7.20;99.90;;;;;;5013675;28;20210;-65
2022/11/12 07:07:48;;;;;;;6.80;2.00;;;7.20;99.90;;;;;;5012093;28;20234;-65
2022/11/12 07:10:16;;;;;;;2.17;1.57;;;7.30;99.90;;;;;;5014826;28;20208;-65
2022/11/12 07:12:42;;;;;;;1.57;1.47;;;7.30;99.90;;;;;;5014831;28;20311;-63
2022/11/12 07:15:10;;;;;;;2.00;1.90;;;7.30;99.90;;;;;;5014535;28;20605;-66
2022/11/12 07:17:37;;;;;;;2.57;2.10;;;7.30;99.90;;;;;;5014803;28;20707;-66
2022/11/12 07:20:04;;;;;;;2.10;2.00;;;7.40;99.90;;;;;;5010250;28;20206;-65
2022/11/12 07:22:34;;;;;;;1.80;1.70;;;7.40;99.90;;;;;;5015024;28;20212;-64
2022/11/12 07:25:01;;;;;;;2.17;1.97;;;7.40;99.90;;;;;;5014525;28;20281;-64
2022/11/12 07:27:30;;;;;;;2.17;2.03;;;7.40;99.90;;;;;;5017758;28;20252;-65
2022/11/12 07:29:57;;;;;;;2.10;2.00;;;7.40;99.90;;;;;;5016140;28;20304;-63
2022/11/12 07:32:24;;;;;;;3.70;3.40;;;7.30;99.90;;;;;;5014252;28;20271;-63
2022/11/12 07:34:51;;;;;;;4.37;4.03;;;7.30;99.90;;;;;;5013446;28;20284;-64
2022/11/12 07:37:18;;;;;;;3.87;3.53;;;7.30;99.90;;;;;;5014434;28;20213;-67
2022/11/12 07:39:46;;;;;;;2.97;2.77;;;7.40;99.90;;;;;;5014632;28;20636;-66
2022/11/12 07:42:13;;;;;;;2.70;2.27;;;7.40;99.90;;;;;;5014289;28;20198;-63
2022/11/12 07:44:39;;;;;;;2.67;1.70;;;7.40;99.90;;;;;;5013155;28;20209;-65
2022/11/12 07:47:06;;;;;;;2.27;1.53;;;7.40;99.90;;;;;;5016640;28;20207;-65
2022/11/12 07:49:33;;;;;;;1.80;1.50;;;7.40;99.90;;;;;;5013608;28;20328;-63
2022/11/12 07:52:00;;;;;;;1.23;1.23;;;7.40;99.90;;;;;;5009886;28;20231;-63
2022/11/12 07:54:27;;;;;;;1.33;1.30;;;7.40;99.90;;;;;;5009912;28;20653;-63
2022/11/12 07:56:56;;;;;;;1.50;1.40;;;7.50;99.90;;;;;;5014437;28;20237;-64
2022/11/12 07:59:23;;;;;;;1.60;1.53;;;7.50;99.90;;;;;;5015020;28;20248;-64
2022/11/12 08:01:51;;;;;;;2.40;2.20;;;7.50;99.90;;;;;;5018695;28;20632;-64
2022/11/12 08:04:18;;;;;;;2.20;2.10;;;7.50;99.90;;;;;;5016572;28;20216;-64
2022/11/12 08:06:45;;;;;;;3.60;2.30;;;7.50;99.90;;;;;;5018190;28;20296;-63
2022/11/12 08:09:11;;;;;;;1.70;1.60;;;7.50;99.90;;;;;;5015357;28;20247;-64
2022/11/12 08:11:38;;;;;;;2.30;2.20;;;7.40;99.90;;;;;;5014042;28;20229;-64
2022/11/12 08:14:06;;;;;;;2.03;1.93;;;7.40;99.90;;;;;;5010679;28;20272;-64
2022/11/12 08:16:33;;;;;;;2.03;1.93;;;7.40;99.90;;;;;;5017479;28;20397;-64
2022/11/12 08:19:01;;;;;;;2.43;2.23;;;7.50;99.90;;;;;;5013951;28;20692;-63
2022/11/12 08:21:27;;;;;;;1.87;1.77;;;7.50;99.90;;;;;;5016030;28;20228;-63
2022/11/12 08:23:54;;;;;;;2.00;1.90;;;7.60;99.90;;;;;;5011528;28;20211;-64
2022/11/12 08:26:21;;;;;;;1.80;1.70;;;7.70;99.90;;;;;;5014429;28;20577;-65
2022/11/12 08:28:48;;;;;;;2.33;2.23;;;7.60;99.90;;;;;;5014527;28;20256;-64
2022/11/12 08:31:18;;;;;;;1.77;1.67;;;7.70;99.90;;;;;;5007063;28;20231;-64
2022/11/12 08:33:45;;;;;;;4.87;2.37;;;7.70;99.90;;;;;;5011312;28;20209;-64
2022/11/12 08:36:14;;;;;;;2.00;1.90;;;7.70;99.90;;;;;;5014213;28;20202;-64
2022/11/12 08:38:42;;;;;;;1.80;1.70;;;7.70;99.90;;;;;;5011358;28;20253;-64
2022/11/12 08:41:11;;;;;;;1.67;1.57;;;7.70;99.90;;;;;;5012894;28;20216;-62
2022/11/12 08:43:39;;;;;;;3.43;1.93;;;7.80;99.90;;;;;;5009685;28;20215;-64
2022/11/12 08:46:07;;;;;;;1.97;1.83;;;7.90;99.90;;;;;;5016749;28;20300;-64
2022/11/12 08:48:38;;;;;;;2.23;2.10;;;7.80;99.90;;;;;;5015000;28;20291;-63
2022/11/12 08:51:06;;;;;;;2.40;2.20;;;7.70;99.90;;;;;;5014002;28;20209;-63
2022/11/12 08:53:33;;;;;;;1.93;1.83;;;7.70;99.90;;;;;;5010006;28;20722;-64
2022/11/12 08:56:01;;;;;;;2.03;1.90;;;7.80;99.90;;;;;;5011300;28;20208;-65
2022/11/12 08:58:27;;;;;;;2.43;2.23;;;7.80;99.90;;;;;;5008557;28;20261;-63
2022/11/12 09:00:55;;;;;;;2.13;2.03;;;7.90;99.90;;;;;;5007880;28;20692;-64
2022/11/12 09:03:24;;;;;;;1.80;1.70;;;7.90;99.90;;;;;;5012713;28;20194;-63
2022/11/12 09:05:53;;;;;;;1.73;1.63;;;7.90;99.90;;;;;;5010712;28;20312;-64
2022/11/12 09:08:21;;;;;;;1.30;1.30;;;8.00;99.90;;;;;;5010802;28;20247;-63
2022/11/12 09:10:49;;;;;;;1.37;1.37;;;8.10;99.90;;;;;;5009253;28;20610;-64
2022/11/12 09:13:16;;;;;;;1.50;1.50;;;8.10;99.90;;;;;;5014691;28;20224;-63
2022/11/12 09:15:45;;;;;;;1.90;1.80;;;8.10;99.90;;;;;;5015616;28;20205;-64
2022/11/12 09:18:14;;;;;;;1.90;1.80;;;8.00;99.90;;;;;;5005580;28;20221;-64
2022/11/12 09:20:41;;;;;;;2.20;2.10;;;8.00;99.90;;;;;;5008946;28;20695;-62
2022/11/12 09:23:11;;;;;;;2.23;2.10;;;8.10;99.90;;;;;;5005470;28;20201;-62
2022/11/12 09:25:39;;;;;;;2.17;2.07;;;8.10;99.90;;;;;;5006945;28;20268;-63
2022/11/12 09:28:10;;;;;;;2.30;2.20;;;8.20;99.90;;;;;;5004489;28;20731;-63
2022/11/12 09:30:38;;;;;;;2.87;2.67;;;8.20;99.90;;;;;;5008410;28;20292;-63
2022/11/12 09:33:05;;;;;;;2.13;2.03;;;8.20;99.90;;;;;;5001664;28;20225;-63
2022/11/12 09:35:32;;;;;;;1.93;1.83;;;8.30;99.90;;;;;;5003430;28;20206;-63
2022/11/12 09:37:59;;;;;;;1.90;1.80;;;8.30;99.90;;;;;;5006117;28;20950;-63
2022/11/12 09:40:39;;;;;;;3.40;2.37;;;8.30;99.90;;;;;;5001527;28;20205;-63
2022/11/12 09:43:17;;;;;;;2.70;2.40;;;8.30;99.90;;;;;;5005528;28;20209;-64
2022/11/12 09:45:45;;;;;;;2.63;2.43;;;8.20;99.90;;;;;;5007990;28;20204;-63
2022/11/12 09:48:15;;;;;;;2.40;2.30;;;8.10;99.90;;;;;;5009249;28;20227;-63
2022/11/12 09:50:51;;;;;;;4.17;2.80;;;8.20;99.90;;;;;;5010972;28;20202;-63
2022/11/12 09:53:22;;;;;;;3.50;3.30;;;8.20;99.90;;;;;;5007674;28;20220;-62
2022/11/12 09:55:50;;;;;;;2.53;2.43;;;8.10;99.90;;;;;;5006645;28;20260;-62
2022/11/12 09:58:19;;;;;;;2.40;2.30;;;8.00;99.90;;;;;;5007768;28;20229;-63
2022/11/12 10:00:53;;;;;;;2.00;1.90;;;8.10;99.90;;;;;;5010086;28;20205;-64
2022/11/12 10:03:31;;;;;;;2.83;2.63;;;8.00;99.90;;;;;;5009198;28;20220;-65
2022/11/12 10:06:01;;;;;;;2.10;2.00;;;7.90;99.90;;;;;;5007597;28;20298;-62
2022/11/12 10:08:37;;;;;;;1.87;1.77;;;8.00;99.90;;;;;;5011009;28;20235;-62
2022/11/12 10:11:21;;;;;;;1.87;1.77;;;8.10;99.90;;;;;;5007997;28;20219;-62
2022/11/12 10:13:58;;;;;;;3.90;3.50;;;8.20;99.90;;;;;;5010774;28;20771;-63
2022/11/12 10:16:44;;;;;;;2.53;2.43;;;8.10;99.90;;;;;;5014757;28;20229;-62
2022/11/12 10:19:31;;;;;;;3.07;2.87;;;8.00;99.90;;;;;;5008850;28;20240;-64
2022/11/12 10:22:07;;;;;;;2.80;2.60;;;8.20;99.90;;;;;;5013848;28;20204;-64
2022/11/12 10:24:36;;;;;;;3.37;3.07;;;8.10;99.90;;;;;;5011634;28;20205;-64
2022/11/12 10:27:14;;;;;;;2.50;2.40;;;8.00;99.90;;;;;;5012921;28;20288;-63
2022/11/12 10:29:50;;;;;;;3.60;2.73;;;7.90;99.90;;;;;;5013970;28;20316;-63
2022/11/12 10:32:17;;;;;;;2.43;2.33;;;7.80;99.90;;;;;;5014123;28;20231;-64
2022/11/12 10:34:44;;;;;;;2.50;2.40;;;7.90;99.90;;;;;;5010326;28;20236;-63
2022/11/12 10:37:17;;;;;;;2.27;2.17;;;8.00;99.90;;;;;;5012740;28;20202;-63
2022/11/12 10:39:46;;;;;;;3.50;2.67;;;8.20;99.90;;;;;;5011033;28;20205;-64
2022/11/12 10:42:16;;;;;;;2.20;2.10;;;8.00;99.90;;;;;;5015118;28;20193;-63
2022/11/12 10:44:44;;;;;;;2.30;2.10;;;7.90;99.90;;;;;;5010011;28;20315;-64
2022/11/12 10:47:27;;;;;;;2.80;2.60;;;8.00;99.90;;;;;;5013911;28;20263;-63
2022/11/12 10:50:21;;;;;;;2.63;2.53;;;7.90;99.90;;;;;;5003774;28;20213;-63
2022/11/12 10:52:57;;;;;;;2.10;2.00;;;8.00;99.90;;;;;;5003308;28;20249;-64
2022/11/12 10:55:27;;;;;;;2.07;1.97;;;8.20;99.90;;;;;;5007737;28;20267;-62
2022/11/12 10:58:18;;;;;;;2.07;1.97;;;8.20;99.90;;;;;;5002881;28;20253;-63
2022/11/12 11:01:00;;;;;;;2.30;2.20;;;8.20;99.90;;;;;;5007922;28;20219;-63
2022/11/12 11:03:31;;;;;;;2.07;1.97;;;8.30;99.90;;;;;;5006788;28;20225;-63
2022/11/12 11:06:00;;;;;;;2.10;2.00;;;8.30;99.90;;;;;;5010233;28;20208;-63
2022/11/12 11:08:39;;;;;;;2.00;1.90;;;8.40;99.90;;;;;;5013413;28;20720;-64
2022/11/12 11:11:19;;;;;;;2.40;2.30;;;8.50;99.90;;;;;;5012155;28;20287;-63
2022/11/12 11:13:48;;;;;;;4.57;3.00;;;8.40;99.90;;;;;;5013313;28;20231;-64
2022/11/12 11:16:17;;;;;;;2.50;2.40;;;8.30;99.90;;;;;;5018540;28;20201;-67
2022/11/12 11:18:48;;;;;;;2.63;2.50;;;8.10;99.90;;;;;;5019025;28;20227;-64
2022/11/12 11:21:33;;;;;;;2.80;2.60;;;8.10;99.90;;;;;;5022395;28;20232;-64
2022/11/12 11:24:09;;;;;;;2.80;2.60;;;8.20;99.90;;;;;;5017450;28;20775;-63
2022/11/12 11:26:46;;;;;;;7.63;3.03;;;8.30;99.90;;;;;;5020876;28;20290;-64
2022/11/12 11:29:30;;;;;;;2.20;2.10;;;8.20;99.90;;;;;;5016234;28;20248;-64
2022/11/12 11:32:01;;;;;;;2.30;2.10;;;8.30;99.90;;;;;;5017295;28;20193;-64
2022/11/12 11:34:39;;;;;;;2.40;2.30;;;8.40;99.90;;;;;;5016001;28;20684;-65
2022/11/12 11:37:22;;;;;;;2.47;2.37;;;8.10;99.90;;;;;;5017759;28;20202;-65
2022/11/12 11:39:59;;;;;;;2.20;2.10;;;8.00;99.90;;;;;;5012500;28;20213;-66
2022/11/12 11:42:46;;;;;;;3.10;2.90;;;8.10;99.90;;;;;;5012839;28;20577;-63
2022/11/12 11:45:22;;;;;;;4.40;2.77;;;8.10;99.90;;;;;;5016636;28;20198;-66
2022/11/12 11:47:54;;;;;;;2.00;1.90;;;8.10;99.90;;;;;;5014251;28;20311;-65
2022/11/12 11:50:28;;;;;;;3.40;3.20;;;8.10;99.90;;;;;;5018796;28;20236;-65
2022/11/12 11:53:06;;;;;;;3.10;2.90;;;8.20;99.90;;;;;;5013924;28;20252;-64
2022/11/12 11:55:42;;;;;;;4.83;4.53;;;8.20;99.90;;;;;;5011860;28;20205;-64
2022/11/12 11:58:31;;;;;;;4.63;4.33;;;8.20;99.90;;;;;;5008665;28;20315;-63
2022/11/12 12:01:11;;;;;;;4.90;4.60;;;8.10;99.90;;;;;;5014013;28;20718;-63
2022/11/12 12:03:51;;;;;;;3.63;3.43;;;8.10;99.90;;;;;;5014301;28;20939;-63
2022/11/12 12:06:24;;;;;;;2.63;2.43;;;8.10;99.90;;;;;;5011381;28;20197;-64
2022/11/12 12:09:10;;;;;;;2.10;2.00;;;8.10;99.90;;;;;;5013924;28;20225;-64
2022/11/12 12:11:50;;;;;;;2.00;1.90;;;8.30;99.90;;;;;;5014534;28;20216;-65
2022/11/12 12:14:33;;;;;;;1.97;1.87;;;8.40;99.90;;;;;;5011633;28;20304;-64
2022/11/12 12:17:14;;;;;;;2.20;2.10;;;8.50;99.90;;;;;;5014167;28;20212;-63
2022/11/12 12:19:51;;;;;;;1.80;1.70;;;8.50;99.90;;;;;;5013427;28;20209;-64
2022/11/12 12:22:24;;;;;;;1.80;1.70;;;8.40;99.90;;;;;;5014123;28;20200;-64
2022/11/12 12:24:55;;;;;;;2.10;1.90;;;8.40;99.90;;;;;;5018948;28;20209;-64
2022/11/12 12:27:26;;;;;;;2.70;2.30;;;8.40;99.90;;;;;;5019958;28;20197;-63
2022/11/12 12:30:00;;;;;;;2.90;2.70;;;8.30;99.90;;;;;;5013162;28;20200;-63
2022/11/12 12:32:33;;;;;;;2.87;2.77;;;8.40;99.90;;;;;;5013292;28;20577;-68
2022/11/12 12:35:13;;;;;;;2.43;2.33;;;8.30;99.90;;;;;;5012999;28;20205;-64
2022/11/12 12:37:46;;;;;;;2.70;2.50;;;8.40;99.90;;;;;;5019116;28;20239;-64
2022/11/12 12:40:18;;;;;;;4.17;3.87;;;8.50;99.90;;;;;;5006401;28;20292;-64
2022/11/12 12:42:50;;;;;;;3.90;3.70;;;8.50;99.90;;;;;;5013340;28;20208;-65
2022/11/12 12:45:39;;;;;;;3.63;3.43;;;8.40;99.90;;;;;;5012098;28;20207;-64
2022/11/12 12:48:13;;;;;;;4.57;3.80;;;8.50;99.90;;;;;;5010778;28;20235;-63
2022/11/12 12:50:41;;;;;;;3.37;3.10;;;8.40;99.90;;;;;;5010549;28;20202;-64
2022/11/12 12:53:18;;;;;;;4.20;3.80;;;8.20;99.90;;;;;;5010542;28;20225;-64
2022/11/12 12:55:46;;;;;;;3.00;2.83;;;8.40;99.90;;;;;;5012627;28;20213;-63
2022/11/12 12:58:20;;;;;;;2.73;2.63;;;8.30;99.90;;;;;;5013187;28;20679;-63
2022/11/12 13:00:50;;;;;;;2.57;2.47;;;8.30;99.90;;;;;;5012456;28;20204;-63
2022/11/12 13:03:57;;;;;;;3.13;2.80;;;8.30;99.90;;;;;;5015355;28;20217;-63
2022/11/12 13:06:32;;;;;;;3.10;3.00;;;8.30;99.90;;;;;;5009483;28;20598;-63
2022/11/12 13:09:05;;;;;;;4.40;4.00;;;8.40;99.90;;;;;;5013593;28;20231;-63
2022/11/12 13:15:05;;;;;;;3.23;3.03;;;8.30;99.90;;;;;;5007360;28;20373;-63
2022/11/12 13:17:50;;;;;;;3.90;3.47;;;8.20;99.90;;;;;;5009396;28;20689;-62
2022/11/12 13:20:38;;;;;;;3.67;3.37;;;8.30;99.90;;;;;;5009925;28;20216;-64
2022/11/12 13:24:04;;;;;;;3.73;3.30;;;8.20;99.90;;;;;;5005403;28;20236;-63
2022/11/12 13:26:47;;;;;;;3.60;3.40;;;8.20;99.90;;;;;;5011655;28;20209;-64
2022/11/12 13:29:43;;;;;;;4.03;3.73;;;8.20;99.90;;;;;;5008570;28;20231;-63
2022/11/12 13:32:34;;;;;;;3.53;3.33;;;8.30;99.90;;;;;;5013197;28;20198;-63
2022/11/12 13:35:24;;;;;;;3.43;3.23;;;8.40;99.90;;;;;;5013647;28;20263;-63
2022/11/12 13:37:55;;;;;;;2.70;2.60;;;8.50;99.90;;;;;;5012182;28;20244;-62
2022/11/12 13:40:36;;;;;;;4.00;3.70;;;8.50;99.90;;;;;;5012140;28;20203;-64
2022/11/12 13:43:18;;;;;;;3.60;3.40;;;8.60;99.90;;;;;;5011449;28;20197;-63
2022/11/12 13:45:48;;;;;;;3.50;3.30;;;8.50;99.90;;;;;;5010941;28;20213;-63